createdAt,value
2024-01-15T00:00:13.590Z,9.77
2024-01-15T00:02:40.456Z,9.73
2024-01-15T00:05:07.582Z,10.80
2024-01-15T00:07:34.356Z,14.82
2024-01-15T00:10:01.084Z,11.77
2024-01-15T00:12:27.878Z,11.40
2024-01-15T00:14:55.334Z,11.63
2024-01-15T00:17:22.138Z,10.13
2024-01-15T00:19:48.931Z,10.35
2024-01-15T00:22:15.688Z,9.57
2024-01-15T00:24:42.420Z,11.05
2024-01-15T00:27:09.224Z,10.88
2024-01-15T00:29:36.051Z,10.30
2024-01-15T00:32:02.858Z,11.13
2024-01-15T00:34:29.705Z,12.05
2024-01-15T00:36:56.575Z,11.75
2024-01-15T00:39:23.344Z,9.18
2024-01-15T00:41:50.096Z,10.55
2024-01-15T00:44:17.214Z,11.55
2024-01-15T00:46:49.048Z,10.38
2024-01-15T00:49:17.152Z,10.65
2024-01-15T00:51:44.328Z,12.10
2024-01-15T00:54:11.360Z,11.55
2024-01-15T00:56:38.386Z,9.55
2024-01-15T00:59:05.268Z,9.75
2024-01-15T01:01:32.721Z,9.55
2024-01-15T01:06:26.473Z,8.35
2024-01-15T01:08:53.309Z,8.57
2024-01-15T01:11:20.151Z,9.32
2024-01-15T01:13:46.928Z,8.73
2024-01-15T01:16:13.839Z,15.02
2024-01-15T01:18:40.808Z,14.63
2024-01-15T01:21:07.934Z,14.48
2024-01-15T01:23:34.704Z,8.70
2024-01-15T01:26:01.441Z,10.13
2024-01-15T01:28:29.305Z,10.30
2024-01-15T01:30:56.250Z,10.07
2024-01-15T01:33:23.232Z,9.13
2024-01-15T01:35:50.239Z,10.45
2024-01-15T01:38:17.069Z,7.70
2024-01-15T01:40:44.073Z,11.25
2024-01-15T01:43:11.469Z,8.45
2024-01-15T01:45:38.920Z,10.68
2024-01-15T01:50:33.359Z,9.15
2024-01-15T01:53:02.226Z,9.32
2024-01-15T01:55:31.908Z,8.70
2024-01-15T01:57:58.906Z,8.20
2024-01-15T02:00:25.951Z,10.00
2024-01-15T02:02:52.860Z,9.80
2024-01-15T02:05:21.554Z,8.20
2024-01-15T02:07:48.790Z,8.02
2024-01-15T02:10:15.878Z,6.38
2024-01-15T02:12:44.623Z,8.60
2024-01-15T02:15:11.780Z,10.63
2024-01-15T02:20:31.482Z,7.72
2024-01-15T02:23:15.523Z,8.10
2024-01-15T02:25:47.629Z,8.73
2024-01-15T02:28:17.764Z,8.93
2024-01-15T02:30:45.655Z,8.93
2024-01-15T02:33:13.729Z,8.57
2024-01-15T02:35:40.848Z,10.20
2024-01-15T02:38:08.526Z,9.07
2024-01-15T02:40:36.274Z,9.15
2024-01-15T02:43:03.268Z,8.23
2024-01-15T02:45:30.335Z,8.73
2024-01-15T02:47:57.310Z,10.43
2024-01-15T02:50:24.227Z,10.48
2024-01-15T02:52:51.093Z,10.13
2024-01-15T02:55:17.887Z,6.38
2024-01-15T02:57:47.384Z,8.10
2024-01-15T03:00:14.810Z,8.32
2024-01-15T03:02:48.314Z,8.13
2024-01-15T03:05:19.062Z,8.23
2024-01-15T03:07:45.890Z,8.38
2024-01-15T03:10:12.606Z,8.88
2024-01-15T03:12:39.414Z,10.35
2024-01-15T03:15:06.830Z,9.43
2024-01-15T03:17:33.689Z,8.00
2024-01-15T03:20:01.839Z,11.35
2024-01-15T03:22:28.729Z,10.10
2024-01-15T03:24:55.906Z,7.93
2024-01-15T03:27:22.776Z,10.98
2024-01-15T03:29:49.626Z,9.52
2024-01-15T03:32:17.296Z,10.55
2024-01-15T03:34:44.261Z,9.18
2024-01-15T03:37:11.107Z,7.40
2024-01-15T03:39:38.112Z,9.25
2024-01-15T03:42:05.374Z,9.95
2024-01-15T03:44:32.135Z,9.55
2024-01-15T03:46:59.157Z,11.32
2024-01-15T03:49:26.116Z,8.95
2024-01-15T03:51:53.171Z,9.80
2024-01-15T03:54:20.923Z,10.23
2024-01-15T03:56:47.960Z,13.57
2024-01-15T03:59:14.916Z,9.68
2024-01-15T04:01:41.791Z,9.98
2024-01-15T04:04:08.796Z,10.57
2024-01-15T04:06:35.921Z,12.77
2024-01-15T04:09:02.736Z,10.07
2024-01-15T04:11:29.461Z,10.27
2024-01-15T04:13:56.148Z,10.35
2024-01-15T04:16:22.851Z,10.35
2024-01-15T04:18:49.788Z,11.95
2024-01-15T04:21:19.458Z,10.40
2024-01-15T04:23:46.196Z,9.45
2024-01-15T04:26:12.959Z,9.75
2024-01-15T04:28:39.739Z,9.30
2024-01-15T04:31:06.780Z,9.40
2024-01-15T04:33:33.690Z,8.95
2024-01-15T04:36:08.350Z,9.27
2024-01-15T04:38:37.344Z,9.35
2024-01-15T04:41:04.302Z,8.55
2024-01-15T04:43:31.071Z,10.43
2024-01-15T04:45:57.915Z,10.30
2024-01-15T04:48:24.787Z,8.75
2024-01-15T04:50:51.791Z,7.32
2024-01-15T04:53:18.630Z,10.27
2024-01-15T04:55:45.346Z,10.73
2024-01-15T04:58:12.088Z,8.75
2024-01-15T05:00:39.044Z,9.88
2024-01-15T05:03:06.201Z,10.25
2024-01-15T05:05:33.043Z,8.02
2024-01-15T05:07:59.794Z,7.63
2024-01-15T05:10:26.577Z,10.02
2024-01-15T05:12:53.361Z,6.45
2024-01-15T05:15:20.364Z,7.88
2024-01-15T05:17:47.205Z,7.47
2024-01-15T05:20:14.216Z,7.80
2024-01-15T05:22:41.039Z,8.90
2024-01-15T05:25:07.986Z,6.15
2024-01-15T05:27:34.866Z,6.90
2024-01-15T05:30:01.789Z,7.38
2024-01-15T05:32:28.532Z,6.10
2024-01-15T05:34:55.408Z,7.82
2024-01-15T05:37:22.197Z,8.13
2024-01-15T05:39:48.970Z,7.30
2024-01-15T05:42:15.811Z,8.23
2024-01-15T05:44:42.768Z,8.20
2024-01-15T05:47:09.541Z,8.68
2024-01-15T05:49:37.328Z,9.50
2024-01-15T05:52:04.585Z,7.90
2024-01-15T05:54:31.498Z,10.20
2024-01-15T05:56:58.485Z,8.18
2024-01-15T05:59:26.574Z,8.43
2024-01-15T06:01:53.458Z,8.48
2024-01-15T06:04:20.700Z,7.95
2024-01-15T06:06:47.605Z,9.32
2024-01-15T06:09:14.359Z,7.65
2024-01-15T06:11:41.139Z,7.43
2024-01-15T06:14:07.902Z,6.70
2024-01-15T06:16:34.622Z,7.70
2024-01-15T06:19:01.487Z,6.40
2024-01-15T06:21:28.442Z,6.32
2024-01-15T06:23:59.618Z,5.75
2024-01-15T06:26:26.648Z,9.07
2024-01-15T06:28:53.380Z,7.07
2024-01-15T06:31:20.293Z,8.63
2024-01-15T06:33:49.518Z,10.07
2024-01-15T06:36:19.556Z,5.78
2024-01-15T06:38:46.412Z,6.68
2024-01-15T06:41:13.332Z,6.25
2024-01-15T06:43:40.301Z,4.63
2024-01-15T06:46:08.136Z,5.90
2024-01-15T06:48:35.917Z,5.90
2024-01-15T06:51:02.823Z,5.38
2024-01-15T06:53:29.632Z,5.63
2024-01-15T06:55:56.409Z,8.77
2024-01-15T06:58:23.163Z,13.45
2024-01-15T07:00:49.963Z,9.10
2024-01-15T07:03:16.872Z,7.95
2024-01-15T07:05:43.781Z,5.72
2024-01-15T07:08:10.598Z,4.85
2024-01-15T07:10:37.913Z,5.05
2024-01-15T07:13:06.556Z,4.88
2024-01-15T07:15:33.488Z,4.93
2024-01-15T07:18:00.305Z,5.75
2024-01-15T07:20:27.143Z,6.32
2024-01-15T07:22:53.922Z,5.50
2024-01-15T07:25:20.663Z,5.68
2024-01-15T07:27:48.042Z,6.85
2024-01-15T07:30:15.443Z,7.00
2024-01-15T07:35:09.444Z,13.60
2024-01-15T07:37:36.286Z,9.98
2024-01-15T07:40:05.549Z,9.85
2024-01-15T07:42:32.480Z,8.32
2024-01-15T07:44:59.217Z,10.25
2024-01-15T07:47:26.136Z,7.70
2024-01-15T07:49:53.651Z,7.78
2024-01-15T07:54:47.766Z,8.00
2024-01-15T07:57:14.649Z,6.80
2024-01-15T07:59:43.102Z,10.70
2024-01-15T08:02:10.096Z,9.32
2024-01-15T08:04:40.939Z,8.40
2024-01-15T08:07:10.971Z,10.88
2024-01-15T08:09:37.839Z,9.43
2024-01-15T08:12:07.110Z,10.10
2024-01-15T08:14:33.883Z,10.85
2024-01-15T08:17:00.694Z,10.23
2024-01-15T08:19:27.560Z,9.13
2024-01-15T08:21:54.542Z,9.65
2024-01-15T08:24:21.335Z,11.15
2024-01-15T08:26:48.207Z,11.32
2024-01-15T08:29:14.984Z,10.10
2024-01-15T08:31:41.875Z,11.27
2024-01-15T08:34:09.301Z,9.77
2024-01-15T08:36:37.297Z,9.88
2024-01-15T08:39:07.549Z,8.88
2024-01-15T08:41:35.743Z,8.45
2024-01-15T08:44:03.838Z,9.40
2024-01-15T08:46:30.773Z,9.50
2024-01-15T08:48:57.705Z,9.82
2024-01-15T08:51:24.622Z,8.73
2024-01-15T08:53:51.385Z,8.18
2024-01-15T08:56:18.178Z,8.52
2024-01-15T08:58:49.339Z,8.73
2024-01-15T09:01:16.223Z,9.45
2024-01-15T09:03:44.009Z,9.60
2024-01-15T09:06:11.906Z,7.40
2024-01-15T09:08:38.818Z,9.27
2024-01-15T09:11:05.921Z,6.07
2024-01-15T09:13:32.770Z,7.70
2024-01-15T09:16:00.681Z,7.47
2024-01-15T09:18:27.824Z,7.97
2024-01-15T09:20:54.702Z,8.02
2024-01-15T09:23:21.502Z,7.55
2024-01-15T09:25:49.693Z,6.82
2024-01-15T09:28:16.499Z,7.45
2024-01-15T09:30:43.443Z,9.00
2024-01-15T09:33:10.641Z,12.40
2024-01-15T09:35:37.930Z,9.60
2024-01-15T09:38:06.887Z,9.93
2024-01-15T09:40:34.817Z,10.13
2024-01-15T09:43:03.060Z,7.95
2024-01-15T09:45:30.608Z,10.00
2024-01-15T09:50:25.046Z,10.45
2024-01-15T09:52:52.759Z,10.60
2024-01-15T09:55:19.744Z,7.25
2024-01-15T09:57:49.567Z,8.73
2024-01-15T10:00:19.519Z,8.77
2024-01-15T10:02:46.816Z,8.38
2024-01-15T10:05:13.714Z,7.65
2024-01-15T10:07:41.943Z,8.50
2024-01-15T10:10:09.760Z,9.45
2024-01-15T10:12:37.397Z,7.18
2024-01-15T10:17:32.432Z,6.70
2024-01-15T10:19:59.358Z,8.23
2024-01-15T10:22:27.324Z,7.10
2024-01-15T10:24:54.385Z,8.82
2024-01-15T10:27:21.354Z,7.18
2024-01-15T10:29:48.144Z,8.18
2024-01-15T10:32:14.976Z,7.07
2024-01-15T10:34:43.031Z,6.60
2024-01-15T10:37:11.130Z,6.53
2024-01-15T10:39:39.012Z,7.45
2024-01-15T10:42:07.732Z,5.60
2024-01-15T10:44:35.634Z,8.00
2024-01-15T10:49:33.093Z,7.68
2024-01-15T10:52:04.189Z,5.88
2024-01-15T10:54:32.743Z,6.60
2024-01-15T10:56:59.707Z,6.10
2024-01-15T10:59:26.500Z,5.85
2024-01-15T11:01:55.682Z,6.35
2024-01-15T11:04:25.208Z,6.85
2024-01-15T11:06:55.916Z,6.55
2024-01-15T11:09:25.194Z,6.05
2024-01-15T11:12:09.166Z,5.20
2024-01-15T11:23:48.340Z,6.57
2024-01-15T11:26:59.034Z,5.75
2024-01-15T11:30:20.383Z,6.15
2024-01-15T11:32:55.326Z,5.75
2024-01-15T11:35:23.490Z,8.13
2024-01-15T11:39:22.648Z,7.55
2024-01-15T11:44:21.393Z,8.02
2024-01-15T11:47:01.902Z,5.18
2024-01-15T11:49:49.836Z,7.38
2024-01-15T11:52:22.451Z,6.27
2024-01-15T11:55:34.594Z,4.97
2024-01-15T11:58:04.255Z,6.88
2024-01-15T12:00:31.423Z,5.60
2024-01-15T12:03:00.555Z,7.28
2024-01-15T12:05:27.365Z,5.53
2024-01-15T12:07:57.341Z,7.75
2024-01-15T12:10:25.190Z,5.57
2024-01-15T12:13:21.736Z,5.68
2024-01-15T12:15:50.022Z,5.13
2024-01-15T12:18:20.303Z,4.50
2024-01-15T12:20:48.830Z,5.10
2024-01-15T12:23:17.661Z,3.65
2024-01-15T12:25:47.959Z,4.03
2024-01-15T12:28:15.747Z,3.60
2024-01-15T12:30:42.980Z,3.03
2024-01-15T12:33:10.621Z,3.22
2024-01-15T12:35:38.981Z,3.35
2024-01-15T12:38:07.538Z,5.53
2024-01-15T12:40:47.664Z,3.25
2024-01-15T12:43:14.560Z,3.15
2024-01-15T12:45:45.801Z,3.10
2024-01-15T12:48:14.658Z,4.90
2024-01-15T12:50:44.684Z,4.20
2024-01-15T12:53:11.384Z,4.75
2024-01-15T12:55:38.144Z,5.33
2024-01-15T12:58:07.735Z,4.80
2024-01-15T13:00:34.524Z,4.05
2024-01-15T13:03:04.594Z,3.72
2024-01-15T13:05:34.839Z,2.90
2024-01-15T13:08:02.300Z,4.18
2024-01-15T13:10:31.455Z,3.58
2024-01-15T13:12:58.300Z,3.83
2024-01-15T13:15:25.133Z,3.38
2024-01-15T13:17:52.082Z,3.08
2024-01-15T13:20:19.070Z,2.40
2024-01-15T13:22:47.130Z,2.95
2024-01-15T13:25:14.133Z,3.42
2024-01-15T13:27:41.921Z,2.22
2024-01-15T13:30:11.729Z,4.00
2024-01-15T13:32:38.634Z,3.70
2024-01-15T13:35:08.499Z,2.13
2024-01-15T13:37:35.797Z,2.83
2024-01-15T13:40:03.205Z,2.05
2024-01-15T13:42:30.175Z,3.22
2024-01-15T13:44:57.062Z,2.35
2024-01-15T13:47:26.810Z,1.83
2024-01-15T13:49:54.030Z,2.85
2024-01-15T13:52:20.962Z,2.88
2024-01-15T13:54:50.555Z,2.25
2024-01-15T13:57:21.758Z,2.58
2024-01-15T13:59:50.203Z,2.45
2024-01-15T14:02:20.966Z,1.83
2024-01-15T14:04:50.275Z,2.15
2024-01-15T14:07:20.181Z,2.10
2024-01-15T14:09:49.607Z,2.83
2024-01-15T14:12:16.865Z,1.88
2024-01-15T14:14:43.705Z,1.65
2024-01-15T14:20:45.717Z,2.42
2024-01-15T14:24:06.215Z,2.20
2024-01-15T14:26:33.108Z,2.88
2024-01-15T14:29:03.832Z,1.85
2024-01-15T14:32:14.564Z,2.30
2024-01-15T14:34:45.345Z,2.47
2024-01-15T14:37:12.136Z,1.88
2024-01-15T14:39:39.055Z,3.00
2024-01-15T14:42:05.975Z,2.03
2024-01-15T14:44:34.709Z,2.72
2024-01-15T14:47:01.646Z,2.17
2024-01-15T14:49:28.490Z,2.45
2024-01-15T14:51:55.774Z,2.00
2024-01-15T14:54:24.789Z,1.60
2024-01-15T14:56:52.013Z,4.90
2024-01-15T14:59:18.825Z,2.08
2024-01-15T15:01:46.896Z,1.92
2024-01-15T15:04:13.811Z,2.22
2024-01-15T15:06:47.424Z,3.90
2024-01-15T15:09:48.314Z,3.08
2024-01-15T15:12:19.124Z,2.83
2024-01-15T15:15:12.737Z,4.53
2024-01-15T15:18:17.783Z,4.15
2024-01-15T15:20:59.906Z,4.00
2024-01-15T15:23:26.897Z,2.75
2024-01-15T15:26:30.698Z,2.25
2024-01-15T15:29:10.034Z,3.10
2024-01-15T15:31:46.918Z,2.47
2024-01-15T15:34:37.997Z,3.92
2024-01-15T15:37:09.990Z,2.60
2024-01-15T15:39:43.897Z,3.28
2024-01-15T15:42:10.798Z,4.53
2024-01-15T15:44:46.538Z,3.85
2024-01-15T15:47:22.283Z,3.58
2024-01-15T15:50:50.247Z,5.07
2024-01-15T15:56:04.914Z,3.70
2024-01-15T15:58:34.208Z,3.03
2024-01-15T16:01:01.320Z,3.35
2024-01-15T16:03:34.662Z,3.60
2024-01-15T16:06:33.684Z,3.08
2024-01-15T16:09:00.890Z,2.35
2024-01-15T16:11:52.768Z,2.88
2024-01-15T16:15:39.093Z,3.63
2024-01-15T16:23:20.484Z,2.35
2024-01-15T16:23:35.202Z,2.33
2024-01-15T16:24:12.346Z,2.93
2024-01-15T16:26:44.081Z,2.53
2024-01-15T16:29:23.053Z,3.13
2024-01-15T16:31:50.022Z,3.97
2024-01-15T16:34:16.830Z,2.20
2024-01-15T16:36:46.449Z,4.45
2024-01-15T16:39:15.915Z,4.20
2024-01-15T16:41:45.181Z,3.47
2024-01-15T16:52:07.253Z,1.88
2024-01-15T16:58:04.510Z,3.17
2024-01-15T17:01:21.222Z,2.83
2024-01-15T17:04:36.361Z,1.60
2024-01-15T17:07:06.600Z,2.70
2024-01-15T17:09:36.148Z,2.40
2024-01-15T17:12:19.182Z,2.92
2024-01-15T17:18:04.354Z,1.88
2024-01-15T17:20:42.445Z,2.92
2024-01-15T17:24:10.082Z,2.63
2024-01-15T17:26:48.300Z,2.75
2024-01-15T17:36:13.557Z,2.80
2024-01-15T17:40:18.319Z,3.22
2024-01-15T17:44:54.242Z,2.00
2024-01-15T19:35:42.935Z,1.52
2024-01-15T19:41:35.626Z,3.17
2024-01-15T19:44:02.478Z,2.50
2024-01-15T19:47:07.237Z,3.72
2024-01-15T19:50:26.213Z,3.22
2024-01-15T19:53:40.276Z,3.83
2024-01-15T20:09:29.111Z,3.17
2024-01-15T20:16:00.195Z,3.20
2024-01-15T20:18:40.102Z,3.55
2024-01-15T20:21:12.936Z,4.78
2024-01-15T20:23:58.652Z,3.72
2024-01-15T20:26:31.101Z,4.38
2024-01-15T20:29:16.010Z,4.70
2024-01-15T20:32:07.739Z,3.78
2024-01-15T20:35:16.221Z,4.72
2024-01-15T20:37:51.848Z,6.18
2024-01-15T20:40:24.647Z,10.43
2024-01-15T20:43:25.501Z,9.30
2024-01-15T20:45:57.344Z,5.88
2024-01-15T20:48:43.662Z,5.93
2024-01-15T20:51:39.234Z,6.38
2024-01-15T20:54:20.602Z,5.75
2024-01-15T20:56:55.604Z,4.15
2024-01-15T20:59:47.039Z,3.67
2024-01-15T21:02:44.191Z,3.08
2024-01-15T21:05:13.569Z,2.65
2024-01-15T21:07:50.011Z,3.17
2024-01-15T21:10:21.362Z,3.03
2024-01-15T21:21:29.169Z,6.20
2024-01-15T21:24:38.579Z,5.68
2024-01-15T21:28:09.691Z,4.65
2024-01-15T21:55:47.041Z,3.80
2024-01-15T22:02:10.324Z,4.20
2024-01-15T22:04:45.707Z,3.85
2024-01-15T22:07:26.987Z,3.85
2024-01-15T22:10:24.539Z,3.22
2024-01-15T22:16:35.148Z,3.28
2024-01-15T22:20:21.570Z,1.40
2024-01-15T22:22:25.283Z,3.22
2024-01-15T22:25:36.149Z,4.30
2024-01-15T22:34:13.136Z,6.40
2024-01-15T22:36:43.896Z,4.05
2024-01-15T22:39:28.065Z,3.40
2024-01-15T22:42:08.567Z,3.30
2024-01-15T22:44:52.216Z,3.67
2024-01-15T22:47:25.732Z,2.75
2024-01-15T22:53:32.885Z,2.20
2024-01-15T22:56:19.490Z,3.58
2024-01-15T22:59:05.835Z,2.55
2024-01-15T23:07:37.581Z,2.42
2024-01-15T23:17:25.911Z,4.60
2024-01-15T23:20:19.481Z,3.15
2024-01-15T23:23:15.376Z,2.28
2024-01-15T23:26:21.759Z,2.50
2024-01-15T23:35:57.509Z,1.85
2024-01-15T23:38:57.463Z,1.50
2024-01-15T23:42:02.536Z,2.50
2024-01-15T23:45:11.835Z,2.42
2024-01-15T23:50:53.133Z,1.90
2024-01-15T23:53:39.859Z,2.47
2024-01-15T23:56:52.097Z,2.33
2024-01-15T23:59:57.129Z,3.38
